createdAt,value
2022-09-11T00:00:41.871Z,60.70
2022-09-11T00:03:08.445Z,69.25
2022-09-11T00:05:39.801Z,65.93
2022-09-11T00:08:12.002Z,57.72
2022-09-11T00:10:40.755Z,66.32
2022-09-11T00:13:08.087Z,64.50
2022-09-11T00:15:39.295Z,62.45
2022-09-11T00:18:07.710Z,62.67
2022-09-11T00:20:35.194Z,61.08
2022-09-11T00:23:04.897Z,62.75
2022-09-11T00:25:36.056Z,63.60
2022-09-11T00:28:02.922Z,59.65
2022-09-11T00:30:30.051Z,67.05
2022-09-11T00:32:56.427Z,69.88
2022-09-11T00:35:22.821Z,68.75
2022-09-11T00:37:49.230Z,65.53
2022-09-11T00:40:17.261Z,76.32
2022-09-11T00:42:44.406Z,69.38
2022-09-11T00:45:26.411Z,72.05
2022-09-11T00:47:58.346Z,73.07
2022-09-11T00:50:27.932Z,72.40
2022-09-11T00:53:02.467Z,69.28
2022-09-11T00:55:32.455Z,73.65
2022-09-11T00:58:03.967Z,72.72
2022-09-11T01:00:30.799Z,72.25
2022-09-11T01:02:57.906Z,74.80
2022-09-11T01:05:27.644Z,68.78
2022-09-11T01:07:56.036Z,67.60
2022-09-11T01:10:57.791Z,72.63
2022-09-11T01:13:56.931Z,69.15
2022-09-11T01:16:42.848Z,69.35
2022-09-11T01:19:46.352Z,60.10
2022-09-11T01:23:02.849Z,64.50
2022-09-11T01:25:31.933Z,66.65
2022-09-11T01:28:00.986Z,63.30
2022-09-11T01:30:38.367Z,58.63
2022-09-11T01:33:28.066Z,56.72
2022-09-11T01:36:29.034Z,62.25
2022-09-11T01:38:58.507Z,55.63
2022-09-11T01:41:31.981Z,64.65
2022-09-11T01:44:03.987Z,64.18
2022-09-11T01:46:35.896Z,59.00
2022-09-11T01:49:12.723Z,74.78
2022-09-11T01:51:40.457Z,69.70
2022-09-11T01:54:12.876Z,69.50
2022-09-11T01:56:45.373Z,73.38
2022-09-11T01:59:16.322Z,82.38
2022-09-11T02:01:51.165Z,85.53
2022-09-11T02:04:33.741Z,80.20
2022-09-11T02:07:42.440Z,81.47
2022-09-11T02:10:17.115Z,83.07
2022-09-11T02:13:07.314Z,87.90
2022-09-11T02:15:41.624Z,79.53
2022-09-11T02:18:37.862Z,91.33
2022-09-11T02:21:04.355Z,84.28
2022-09-11T02:23:30.774Z,95.00
2022-09-11T02:25:57.175Z,84.75
2022-09-11T02:28:23.908Z,80.22
2022-09-11T02:30:50.388Z,79.00
2022-09-11T02:33:35.904Z,73.82
2022-09-11T02:39:27.384Z,82.18
2022-09-11T02:42:21.982Z,79.25
2022-09-11T02:44:56.654Z,82.68
2022-09-11T02:47:43.558Z,87.75
2022-09-11T02:50:18.981Z,90.60
2022-09-11T02:52:54.487Z,81.22
2022-09-11T02:55:25.240Z,79.53
2022-09-11T02:57:59.286Z,84.55
2022-09-11T03:00:25.741Z,75.53
2022-09-11T03:02:53.530Z,87.90
2022-09-11T03:05:20.571Z,73.72
2022-09-11T03:07:47.162Z,81.28
2022-09-11T03:10:13.631Z,86.63
2022-09-11T03:12:39.987Z,95.03
2022-09-11T03:15:07.214Z,83.32
2022-09-11T03:17:33.625Z,84.05
2022-09-11T03:20:00.003Z,80.10
2022-09-11T03:22:26.398Z,77.10
2022-09-11T03:24:52.763Z,79.13
2022-09-11T03:27:19.152Z,87.72
2022-09-11T03:29:46.387Z,74.25
2022-09-11T03:32:12.807Z,80.28
2022-09-11T03:34:39.125Z,78.07
2022-09-11T03:37:05.436Z,78.70
2022-09-11T03:39:31.782Z,80.43
2022-09-11T03:41:58.284Z,77.20
2022-09-11T03:44:25.515Z,84.22
2022-09-11T03:46:52.981Z,85.93
2022-09-11T03:49:20.279Z,89.00
2022-09-11T03:51:47.768Z,88.60
2022-09-11T03:54:16.016Z,104.40
2022-09-11T03:56:42.939Z,92.72
2022-09-11T03:59:09.349Z,94.70
2022-09-11T04:01:35.687Z,94.78
2022-09-11T04:04:04.611Z,98.63
2022-09-11T04:06:34.628Z,99.32
2022-09-11T04:09:01.289Z,99.95
2022-09-11T04:14:11.092Z,100.05
2022-09-11T04:16:37.831Z,100.80
2022-09-11T04:19:04.652Z,94.32
2022-09-11T04:21:31.777Z,103.80
2022-09-11T04:24:00.234Z,97.20
2022-09-11T04:26:31.572Z,104.15
2022-09-11T04:28:59.033Z,95.85
2022-09-11T04:31:27.535Z,97.45
2022-09-11T04:33:57.484Z,100.90
2022-09-11T04:36:26.893Z,102.88
2022-09-11T04:38:58.195Z,101.28
2022-09-11T04:41:25.391Z,93.38
2022-09-11T04:43:57.600Z,86.70
2022-09-11T04:46:26.925Z,95.95
2022-09-11T04:49:02.297Z,104.00
2022-09-11T04:51:34.696Z,102.82
2022-09-11T04:54:02.027Z,106.93
2022-09-11T04:56:34.261Z,105.13
2022-09-11T04:59:06.814Z,94.03
2022-09-11T05:01:34.079Z,101.60
2022-09-11T05:04:01.580Z,99.05
2022-09-11T05:06:30.405Z,102.43
2022-09-11T05:09:01.691Z,97.18
2022-09-11T05:11:28.145Z,100.97
2022-09-11T05:13:54.495Z,113.55
2022-09-11T05:16:21.131Z,115.18
2022-09-11T05:18:52.473Z,97.63
2022-09-11T05:21:22.537Z,110.90
2022-09-11T05:23:51.274Z,104.13
2022-09-11T05:26:20.169Z,112.97
2022-09-11T05:28:47.063Z,102.63
2022-09-11T05:31:18.146Z,111.38
2022-09-11T05:33:45.444Z,112.03
2022-09-11T05:36:13.574Z,101.68
2022-09-11T05:38:40.115Z,111.15
2022-09-11T05:41:08.720Z,110.97
2022-09-11T05:43:35.417Z,104.18
2022-09-11T05:46:02.174Z,112.22
2022-09-11T05:48:30.319Z,111.60
2022-09-11T05:51:01.970Z,123.57
2022-09-11T05:53:32.822Z,121.20
2022-09-11T05:56:13.905Z,113.72
2022-09-11T05:58:40.323Z,130.23
2022-09-11T06:01:09.336Z,137.82
2022-09-11T06:03:37.278Z,131.07
2022-09-11T06:06:06.544Z,126.68
2022-09-11T06:08:34.510Z,118.15
2022-09-11T06:11:04.133Z,115.70
2022-09-11T06:13:34.054Z,115.30
2022-09-11T06:16:00.649Z,105.22
2022-09-11T06:18:27.021Z,105.65
2022-09-11T06:21:02.448Z,119.28
2022-09-11T06:23:29.069Z,100.22
2022-09-11T06:26:07.711Z,109.35
2022-09-11T06:28:35.778Z,101.43
2022-09-11T06:31:13.388Z,103.30
2022-09-11T06:33:40.998Z,118.07
2022-09-11T06:36:38.949Z,106.25
2022-09-11T06:39:05.471Z,106.18
2022-09-11T06:41:32.694Z,121.40
2022-09-11T06:43:59.151Z,124.32
2022-09-11T06:46:26.371Z,115.40
2022-09-11T06:48:53.787Z,125.93
2022-09-11T06:51:22.409Z,119.53
2022-09-11T06:53:49.106Z,120.95
2022-09-11T06:56:18.205Z,123.95
2022-09-11T06:58:45.861Z,111.40
2022-09-11T07:01:17.682Z,112.53
2022-09-11T07:03:45.600Z,109.72
2022-09-11T07:06:13.489Z,103.40
2022-09-11T07:08:40.169Z,110.22
2022-09-11T07:11:08.222Z,106.57
2022-09-11T07:13:37.424Z,97.97
2022-09-11T07:16:07.687Z,98.25
2022-09-11T07:18:41.258Z,87.75
2022-09-11T07:21:12.937Z,96.68
2022-09-11T07:23:40.928Z,102.07
2022-09-11T07:26:11.259Z,92.10
2022-09-11T07:28:38.714Z,91.32
2022-09-11T07:31:10.435Z,93.38
2022-09-11T07:33:45.479Z,85.15
2022-09-11T07:36:14.375Z,96.88
2022-09-11T07:38:42.692Z,96.63
2022-09-11T07:41:10.661Z,79.38
2022-09-11T07:43:38.635Z,87.68
2022-09-11T07:46:06.255Z,102.72
2022-09-11T07:48:32.811Z,97.20
2022-09-11T07:51:04.924Z,75.40
2022-09-11T07:53:35.465Z,88.38
2022-09-11T07:56:03.851Z,87.70
2022-09-11T07:58:38.996Z,87.65
2022-09-11T08:03:34.299Z,93.97
2022-09-11T08:06:02.271Z,74.40
2022-09-11T08:08:29.286Z,88.10
2022-09-11T08:11:10.227Z,86.82
2022-09-11T08:13:36.980Z,75.47
2022-09-11T08:16:03.642Z,76.80
2022-09-11T08:18:30.914Z,74.85
2022-09-11T08:21:12.631Z,81.20
2022-09-11T08:23:41.392Z,66.55
2022-09-11T08:26:25.832Z,75.75
2022-09-11T08:28:54.368Z,75.00
2022-09-11T08:31:26.250Z,72.95
2022-09-11T08:33:54.680Z,76.43
2022-09-11T08:36:22.643Z,71.47
2022-09-11T08:38:49.280Z,81.28
2022-09-11T08:41:27.511Z,77.72
2022-09-11T08:43:57.965Z,77.57
2022-09-11T08:46:31.025Z,78.63
2022-09-11T08:49:18.906Z,79.75
2022-09-11T08:51:47.114Z,78.55
2022-09-11T08:54:34.558Z,73.97
2022-09-11T08:57:23.319Z,74.50
2022-09-11T09:00:21.847Z,60.80
2022-09-11T09:02:57.238Z,65.03
2022-09-11T09:05:50.077Z,74.50
2022-09-11T09:08:35.092Z,68.47
2022-09-11T09:11:10.720Z,66.25
2022-09-11T09:14:06.313Z,71.72
2022-09-11T09:16:45.377Z,62.88
2022-09-11T09:19:29.225Z,69.80
2022-09-11T09:22:19.093Z,70.95
2022-09-11T09:24:50.028Z,68.13
2022-09-11T09:27:25.596Z,61.90
2022-09-11T09:29:58.462Z,69.35
2022-09-11T09:32:58.528Z,66.78
2022-09-11T09:35:34.593Z,62.78
2022-09-11T09:38:01.024Z,60.80
2022-09-11T09:40:33.271Z,64.78
2022-09-11T09:43:07.950Z,56.83
2022-09-11T09:45:48.528Z,61.83
2022-09-11T09:48:15.352Z,57.95
2022-09-11T09:50:46.057Z,67.47
2022-09-11T09:53:32.417Z,66.03
2022-09-11T09:56:00.511Z,66.97
2022-09-11T09:58:33.696Z,62.47
2022-09-11T10:01:00.458Z,57.80
2022-09-11T10:03:27.049Z,62.53
2022-09-11T10:05:55.893Z,68.95
2022-09-11T10:08:37.520Z,59.25
2022-09-11T10:11:05.853Z,62.65
2022-09-11T10:13:36.745Z,56.60
2022-09-11T10:16:19.165Z,49.00
2022-09-11T10:18:47.057Z,47.45
2022-09-11T10:21:13.752Z,52.05
2022-09-11T10:23:50.580Z,60.85
2022-09-11T10:26:26.846Z,51.38
2022-09-11T10:29:04.956Z,56.92
2022-09-11T10:31:31.444Z,60.92
2022-09-11T10:33:59.590Z,59.00
2022-09-11T10:36:28.603Z,48.35
2022-09-11T10:39:01.004Z,45.75
2022-09-11T10:41:32.122Z,48.65
2022-09-11T10:44:13.033Z,40.35
2022-09-11T10:46:41.930Z,46.13
2022-09-11T10:49:17.415Z,49.22
2022-09-11T10:52:17.230Z,58.10
2022-09-11T10:55:00.021Z,55.20
2022-09-11T10:57:39.804Z,47.53
2022-09-11T11:00:21.025Z,43.97
2022-09-11T11:02:53.742Z,52.80
2022-09-11T11:06:04.671Z,48.72
2022-09-11T11:08:57.358Z,43.35
2022-09-11T11:11:24.159Z,43.38
2022-09-11T11:14:13.232Z,46.20
2022-09-11T11:17:07.662Z,44.65
2022-09-11T11:19:51.889Z,43.60
2022-09-11T11:22:45.305Z,41.25
2022-09-11T11:25:28.511Z,38.40
2022-09-11T11:28:15.069Z,41.88
2022-09-11T11:30:47.509Z,38.47
2022-09-11T11:33:23.949Z,35.78
2022-09-11T11:36:10.318Z,28.00
2022-09-11T11:39:02.000Z,35.17
2022-09-11T11:41:38.992Z,32.63
2022-09-11T11:44:12.137Z,27.38
2022-09-11T11:46:45.002Z,21.63
2022-09-11T11:49:37.700Z,19.48
2022-09-11T11:52:18.033Z,21.63
2022-09-11T11:55:20.639Z,21.90
2022-09-11T11:58:01.293Z,22.45
2022-09-11T12:00:29.660Z,26.95
2022-09-11T12:03:12.935Z,26.63
2022-09-11T12:05:39.449Z,21.65
2022-09-11T12:08:13.165Z,19.10
2022-09-11T12:10:42.937Z,19.13
2022-09-11T12:13:18.313Z,20.33
2022-09-11T12:16:11.280Z,21.50
2022-09-11T12:18:38.627Z,20.77
2022-09-11T12:21:35.613Z,18.83
2022-09-11T12:24:02.607Z,22.67
2022-09-11T12:26:33.213Z,16.05
2022-09-11T12:29:12.240Z,16.75
2022-09-11T12:31:52.273Z,21.73
2022-09-11T12:34:24.784Z,22.00
2022-09-11T12:37:06.851Z,26.50
2022-09-11T12:39:39.476Z,17.52
2022-09-11T12:42:22.885Z,17.55
2022-09-11T12:44:49.245Z,17.40
2022-09-11T12:47:24.533Z,16.88
2022-09-11T12:50:02.455Z,19.02
2022-09-11T12:52:40.151Z,17.50
2022-09-11T12:55:27.878Z,17.27
2022-09-11T12:57:55.003Z,20.50
2022-09-11T13:00:42.119Z,19.55
2022-09-11T13:03:19.058Z,16.75
2022-09-11T13:05:55.150Z,17.70
2022-09-11T13:08:26.159Z,17.00
2022-09-11T13:10:52.731Z,24.77
2022-09-11T13:13:34.617Z,20.50
2022-09-11T13:16:34.870Z,22.00
2022-09-11T13:19:07.465Z,20.30
2022-09-11T13:21:36.730Z,19.15
2022-09-11T13:24:03.834Z,19.88
2022-09-11T13:26:31.429Z,19.35
2022-09-11T13:29:00.853Z,17.38
2022-09-11T13:31:34.697Z,18.23
2022-09-11T13:34:05.787Z,15.23
2022-09-11T13:36:36.205Z,20.40
2022-09-11T13:39:04.263Z,14.52
2022-09-11T13:41:39.973Z,12.43
2022-09-11T13:44:11.889Z,12.98
2022-09-11T13:46:50.429Z,14.02
2022-09-11T13:49:32.336Z,14.88
2022-09-11T13:51:59.222Z,14.18
2022-09-11T13:54:32.324Z,16.15
2022-09-11T13:57:01.515Z,16.65
2022-09-11T13:59:41.482Z,13.48
2022-09-11T14:02:46.848Z,14.20
2022-09-11T14:05:32.517Z,17.85
2022-09-11T14:08:32.703Z,13.60
2022-09-11T14:11:15.641Z,11.95
2022-09-11T14:14:05.240Z,12.32
2022-09-11T14:16:35.208Z,13.68
2022-09-11T14:19:24.525Z,13.32
2022-09-11T14:21:51.279Z,14.88
2022-09-11T14:24:28.471Z,14.10
2022-09-11T14:26:58.513Z,11.75
2022-09-11T14:29:32.639Z,11.43
2022-09-11T14:32:24.169Z,14.77
2022-09-11T14:34:50.509Z,13.85
2022-09-11T14:37:17.454Z,12.88
2022-09-11T14:39:47.855Z,11.43
2022-09-11T14:42:21.566Z,12.52
2022-09-11T14:44:48.504Z,11.52
2022-09-11T14:47:24.410Z,13.48
2022-09-11T14:49:55.759Z,16.65
2022-09-11T14:52:27.631Z,15.25
2022-09-11T14:54:54.559Z,14.43
2022-09-11T14:57:23.771Z,14.07
2022-09-11T14:59:51.175Z,16.90
2022-09-11T15:02:21.218Z,14.48
2022-09-11T15:04:48.734Z,18.15
2022-09-11T15:07:17.055Z,14.85
2022-09-11T15:09:43.655Z,14.30
2022-09-11T15:12:12.179Z,13.70
2022-09-11T15:14:58.240Z,14.55
2022-09-11T15:17:25.560Z,14.25
2022-09-11T15:19:52.612Z,15.40
2022-09-11T15:22:19.512Z,16.83
2022-09-11T15:24:49.002Z,17.95
2022-09-11T15:27:15.674Z,15.68
2022-09-11T15:29:42.507Z,16.55
2022-09-11T15:32:09.729Z,19.48
2022-09-11T15:34:38.585Z,16.02
2022-09-11T15:37:05.370Z,16.02
2022-09-11T15:39:31.990Z,13.43
2022-09-11T15:41:58.435Z,14.48
2022-09-11T15:44:27.410Z,14.45
2022-09-11T15:46:55.376Z,14.90
2022-09-11T15:49:23.338Z,17.58
2022-09-11T15:51:51.647Z,14.32
2022-09-11T15:54:18.422Z,14.93
2022-09-11T15:56:46.284Z,12.25
2022-09-11T15:59:15.153Z,14.90
2022-09-11T16:01:42.670Z,18.88
2022-09-11T16:04:11.677Z,15.52
2022-09-11T16:06:40.669Z,16.08
2022-09-11T16:09:11.127Z,15.13
2022-09-11T16:11:39.815Z,15.05
2022-09-11T16:14:06.868Z,16.10
2022-09-11T16:16:34.311Z,15.18
2022-09-11T16:19:01.677Z,18.92
2022-09-11T16:21:28.581Z,18.73
2022-09-11T16:24:00.762Z,14.80
2022-09-11T16:26:28.978Z,15.60
2022-09-11T16:28:55.531Z,15.70
2022-09-11T16:31:21.998Z,14.80
2022-09-11T16:33:49.907Z,12.85
2022-09-11T16:36:21.118Z,13.77
2022-09-11T16:38:50.179Z,16.80
2022-09-11T16:41:21.426Z,14.65
2022-09-11T16:43:50.883Z,15.00
2022-09-11T16:46:22.798Z,12.77
2022-09-11T16:48:53.968Z,14.07
2022-09-11T16:51:22.240Z,15.40
2022-09-11T16:53:49.249Z,13.65
2022-09-11T16:56:18.916Z,12.27
2022-09-11T16:58:46.569Z,13.10
2022-09-11T17:01:19.355Z,13.40
2022-09-11T17:03:48.102Z,11.52
2022-09-11T17:06:16.191Z,11.05
2022-09-11T17:08:44.675Z,12.68
2022-09-11T17:11:13.979Z,14.88
2022-09-11T17:13:42.548Z,19.35
2022-09-11T17:16:16.087Z,16.08
2022-09-11T17:18:48.628Z,12.50
2022-09-11T17:21:16.289Z,14.43
2022-09-11T17:23:42.741Z,14.75
2022-09-11T17:26:12.524Z,12.20
2022-09-11T17:28:40.359Z,15.50
2022-09-11T17:31:09.052Z,15.30
2022-09-11T17:33:38.461Z,13.38
2022-09-11T17:36:06.002Z,12.63
2022-09-11T17:38:32.887Z,13.70
2022-09-11T17:41:01.674Z,13.00
2022-09-11T17:43:28.089Z,15.13
2022-09-11T17:46:07.190Z,14.05
2022-09-11T17:48:33.778Z,13.68
2022-09-11T17:51:06.713Z,14.02
2022-09-11T17:53:38.481Z,14.52
2022-09-11T17:56:09.688Z,15.73
2022-09-11T17:58:37.065Z,17.05
2022-09-11T18:01:04.166Z,14.25
2022-09-11T18:03:31.742Z,15.93
2022-09-11T18:05:59.597Z,15.88
2022-09-11T18:08:27.273Z,13.75
2022-09-11T18:10:59.231Z,15.05
2022-09-11T18:13:27.689Z,13.63
2022-09-11T18:15:56.096Z,18.13
2022-09-11T18:18:23.631Z,13.30
2022-09-11T18:20:53.811Z,15.85
2022-09-11T18:23:23.908Z,15.88
2022-09-11T18:25:51.440Z,17.38
2022-09-11T18:28:20.138Z,13.80
2022-09-11T18:30:47.288Z,18.45
2022-09-11T18:33:16.526Z,14.98
2022-09-11T18:35:44.023Z,17.02
2022-09-11T18:38:10.794Z,15.85
2022-09-11T18:40:37.524Z,15.32
2022-09-11T18:43:05.347Z,15.48
2022-09-11T18:45:35.467Z,17.75
2022-09-11T18:48:03.301Z,17.83
2022-09-11T18:50:29.923Z,20.23
2022-09-11T18:52:56.562Z,18.38
2022-09-11T18:55:22.995Z,18.15
2022-09-11T18:57:50.578Z,20.55
2022-09-11T19:00:18.290Z,17.60
2022-09-11T19:02:46.675Z,19.25
2022-09-11T19:05:15.917Z,20.98
2022-09-11T19:07:43.885Z,20.08
2022-09-11T19:10:12.542Z,22.00
2022-09-11T19:12:40.769Z,21.38
2022-09-11T19:15:08.843Z,20.23
2022-09-11T19:17:36.739Z,22.52
2022-09-11T19:20:09.620Z,19.65
2022-09-11T19:22:36.231Z,17.92
2022-09-11T19:25:02.797Z,17.75
2022-09-11T19:27:31.575Z,21.52
2022-09-11T19:29:58.234Z,20.85
2022-09-11T19:32:25.289Z,20.17
2022-09-11T19:34:51.790Z,17.73
2022-09-11T19:37:20.898Z,20.33
2022-09-11T19:39:51.817Z,20.50
2022-09-11T19:42:18.857Z,18.35
2022-09-11T19:44:45.456Z,23.48
2022-09-11T19:47:12.419Z,22.10
2022-09-11T19:49:38.833Z,21.25
2022-09-11T19:52:06.458Z,28.77
2022-09-11T19:54:34.583Z,21.98
2022-09-11T19:57:02.228Z,23.63
2022-09-11T19:59:28.665Z,27.65
2022-09-11T20:01:55.210Z,22.70
2022-09-11T20:04:22.042Z,21.45
2022-09-11T20:09:30.480Z,24.00
2022-09-11T20:12:00.519Z,22.85
2022-09-11T20:14:27.565Z,23.58
2022-09-11T20:16:54.114Z,22.55
2022-09-11T20:19:20.572Z,21.27
2022-09-11T20:21:47.056Z,26.70
2022-09-11T20:24:14.836Z,24.25
2022-09-11T20:26:41.378Z,21.75
2022-09-11T20:29:12.124Z,21.13
2022-09-11T20:31:48.684Z,25.27
2022-09-11T20:34:20.024Z,25.08
2022-09-11T20:36:46.875Z,24.15
2022-09-11T20:39:14.343Z,27.23
2022-09-11T20:41:41.134Z,22.42
2022-09-11T20:44:07.987Z,21.67
2022-09-11T20:46:34.503Z,20.77
2022-09-11T20:49:01.058Z,24.67
2022-09-11T20:51:27.895Z,24.38
2022-09-11T20:53:55.572Z,19.05
2022-09-11T20:56:24.946Z,20.52
2022-09-11T20:58:52.043Z,23.23
2022-09-11T21:01:21.550Z,18.75
2022-09-11T21:03:56.325Z,23.65
2022-09-11T21:06:26.340Z,20.73
2022-09-11T21:08:55.851Z,18.73
2022-09-11T21:11:23.602Z,20.75
2022-09-11T21:13:50.087Z,17.77
2022-09-11T21:16:17.346Z,17.27
2022-09-11T21:18:53.191Z,17.10
2022-09-11T21:21:20.863Z,13.38
2022-09-11T21:23:48.088Z,21.17
2022-09-11T21:26:17.030Z,18.60
2022-09-11T21:28:43.558Z,17.60
2022-09-11T21:31:10.705Z,19.08
2022-09-11T21:33:38.134Z,15.70
2022-09-11T21:36:05.795Z,18.52
2022-09-11T21:38:32.903Z,17.30
2022-09-11T21:41:01.675Z,15.45
2022-09-11T21:43:28.675Z,16.00
2022-09-11T21:45:55.460Z,16.98
2022-09-11T21:48:22.085Z,12.30
2022-09-11T21:50:48.706Z,15.18
2022-09-11T21:53:15.597Z,14.38
2022-09-11T21:55:44.786Z,22.25
2022-09-11T21:58:17.824Z,15.50
2022-09-11T22:00:45.288Z,17.05
2022-09-11T22:03:12.429Z,16.52
2022-09-11T22:05:42.922Z,17.13
2022-09-11T22:08:10.479Z,16.48
2022-09-11T22:10:42.648Z,16.00
2022-09-11T22:13:10.510Z,18.63
2022-09-11T22:15:41.206Z,20.23
2022-09-11T22:18:08.241Z,15.18
2022-09-11T22:20:37.547Z,17.15
2022-09-11T22:23:04.916Z,16.40
2022-09-11T22:25:31.831Z,16.08
2022-09-11T22:27:58.377Z,17.38
2022-09-11T22:30:24.871Z,18.05
2022-09-11T22:32:51.374Z,16.00
2022-09-11T22:35:17.765Z,16.58
2022-09-11T22:37:44.261Z,16.42
2022-09-11T22:40:10.873Z,17.92
2022-09-11T22:42:37.407Z,15.60
2022-09-11T22:45:04.079Z,15.63
2022-09-11T22:47:30.689Z,15.43
2022-09-11T22:49:58.226Z,19.38
2022-09-11T22:52:24.800Z,20.70
2022-09-11T22:54:51.261Z,13.18
2022-09-11T22:57:17.693Z,15.82
2022-09-11T22:59:46.984Z,17.05
2022-09-11T23:02:14.791Z,14.15
2022-09-11T23:05:01.437Z,17.33
2022-09-11T23:07:28.037Z,15.20
2022-09-11T23:09:54.557Z,15.07
2022-09-11T23:12:20.916Z,21.90
2022-09-11T23:14:47.524Z,17.02
2022-09-11T23:17:14.130Z,16.08
2022-09-11T23:19:40.596Z,17.77
2022-09-11T23:22:07.048Z,16.05
2022-09-11T23:24:33.978Z,17.08
2022-09-11T23:27:00.341Z,15.02
2022-09-11T23:29:27.193Z,19.40
2022-09-11T23:31:56.394Z,18.30
2022-09-11T23:34:22.855Z,18.88
2022-09-11T23:36:49.225Z,15.88
2022-09-11T23:39:15.979Z,16.23
2022-09-11T23:41:42.382Z,19.92
2022-09-11T23:44:09.066Z,16.30
2022-09-11T23:46:35.485Z,17.75
2022-09-11T23:49:02.076Z,18.55
2022-09-11T23:51:28.514Z,16.88
2022-09-11T23:53:55.062Z,16.17
2022-09-11T23:56:22.367Z,15.75
2022-09-11T23:58:49.867Z,14.55
